Terminal Aerodrome Forecast
Issued by NWS Wilmington, NC

Home | Current Version | Previous Version | Text Only | Print | Product List | Glossary On
Versions: 1 2 3 4 5 6 7 8 9 10 11 12 13 14 15 16 17 18 19 20
000
FTUS42 KILM 250500
TAFLBT
TAF
KLBT 250528Z 2506/2606 22011KT P6SM -SHRA SCT011 OVC100
      TEMPO 2506/2507 BKN011
     FM250700 26013G20KT P6SM -SHRA BKN020 OVC100
     FM250800 26011KT P6SM FEW020 OVC100
     FM251200 27010KT P6SM BKN100
     FM251600 30006KT P6SM SKC
     FM260000 VRB01KT P6SM SKC=

USA.gov is the U.S. government's official web portal to all federal, state and local government web resources and services.